Time;durP1;ratioP1;P1;durP2;ratioP2;P2;SDS_P1;SDS_P2;PMS_P1;PMS_P2;Temp;Humidity;BMP_temperature;BMP_pressure;BME280_temperature;BME280_humidity;BME280_pressure;Samples;Min_cycle;Max_cycle;Signal;HPM_P1;HPM_P2
2020/12/24 00:01:00;;;;;;;2.28;1.05;;;17.20;74.10;;;;;;4994549;28;20042;-65
2020/12/24 00:03:30;;;;;;;2.85;0.90;;;17.30;74.20;;;;;;4984382;28;20054;-64
2020/12/24 00:06:02;;;;;;;4.22;0.80;;;17.30;74.10;;;;;;4985493;28;20125;-64
2020/12/24 00:08:31;;;;;;;3.38;1.00;;;17.20;74.00;;;;;;4994239;28;20140;-64
2020/12/24 00:11:01;;;;;;;3.05;1.25;;;17.30;74.00;;;;;;4991546;28;20057;-63
2020/12/24 00:13:31;;;;;;;2.13;1.08;;;17.30;73.90;;;;;;4988439;28;20042;-64
2020/12/24 00:16:01;;;;;;;2.35;1.10;;;17.30;73.90;;;;;;4983067;28;20137;-64
2020/12/24 00:18:32;;;;;;;1.13;0.80;;;17.30;73.90;;;;;;4992782;28;20525;-64
2020/12/24 00:21:09;;;;;;;3.13;1.08;;;17.30;73.90;;;;;;4983665;28;20053;-64
2020/12/24 00:23:38;;;;;;;4.90;1.10;;;17.40;74.50;;;;;;4999453;28;20069;-64
2020/12/24 00:26:08;;;;;;;1.80;1.08;;;17.40;73.90;;;;;;4986984;28;20046;-64
2020/12/24 00:28:38;;;;;;;3.20;1.13;;;17.30;73.80;;;;;;4984816;28;20379;-65
2020/12/24 00:31:08;;;;;;;1.42;0.98;;;17.40;73.70;;;;;;4987080;28;20153;-64
2020/12/24 00:33:38;;;;;;;2.83;1.80;;;17.40;74.30;;;;;;4991445;28;20049;-64
2020/12/24 00:36:10;;;;;;;2.83;1.45;;;17.40;73.60;;;;;;4984643;28;20314;-64
2020/12/24 00:38:41;;;;;;;2.92;0.80;;;17.40;73.60;;;;;;4995834;28;20097;-64
2020/12/24 00:41:12;;;;;;;2.67;0.93;;;17.40;73.40;;;;;;4987312;28;20042;-65
2020/12/24 00:43:45;;;;;;;2.30;0.85;;;17.40;73.40;;;;;;4997365;28;20511;-63
2020/12/24 00:46:16;;;;;;;4.47;1.00;;;17.40;73.30;;;;;;4993528;28;20134;-64
2020/12/24 00:48:48;;;;;;;3.05;0.93;;;17.40;73.30;;;;;;4994985;28;20154;-64
2020/12/24 00:51:18;;;;;;;5.70;1.30;;;17.40;73.30;;;;;;4985380;28;20049;-64
2020/12/24 00:53:47;;;;;;;6.30;1.45;;;17.40;73.20;;;;;;4997789;28;20057;-65
2020/12/24 00:56:18;;;;;;;2.95;0.90;;;17.50;73.10;;;;;;4994926;28;20569;-64
2020/12/24 00:59:01;;;;;;;3.25;0.95;;;17.50;73.20;;;;;;5000726;28;20087;-65
2020/12/24 01:01:32;;;;;;;5.78;0.90;;;17.50;73.00;;;;;;4989807;28;20046;-65
2020/12/24 01:04:02;;;;;;;3.42;0.98;;;17.50;73.00;;;;;;4996811;28;20743;-67
2020/12/24 01:06:35;;;;;;;2.38;1.23;;;17.50;72.90;;;;;;4987733;28;20046;-65
2020/12/24 01:09:06;;;;;;;1.92;0.77;;;17.50;72.80;;;;;;4992174;28;20139;-65
2020/12/24 01:11:38;;;;;;;4.68;1.20;;;17.50;72.80;;;;;;4991766;28;20074;-65
2020/12/24 01:14:07;;;;;;;2.83;1.20;;;17.50;72.70;;;;;;4995677;28;20034;-66
2020/12/24 01:16:38;;;;;;;2.92;1.33;;;17.50;72.80;;;;;;4995467;28;20121;-66
2020/12/24 01:19:12;;;;;;;4.50;1.15;;;17.50;72.80;;;;;;4990556;28;20042;-65
2020/12/24 01:21:47;;;;;;;5.22;1.20;;;17.50;72.60;;;;;;4996697;28;20121;-65
2020/12/24 01:24:16;;;;;;;3.40;1.27;;;17.60;72.70;;;;;;4996775;28;20136;-65
2020/12/24 01:26:50;;;;;;;4.93;1.02;;;17.60;72.70;;;;;;4995916;28;20169;-65
2020/12/24 01:29:20;;;;;;;1.98;1.10;;;17.60;72.60;;;;;;4984727;28;20546;-63
2020/12/24 01:31:52;;;;;;;4.68;1.15;;;17.60;72.60;;;;;;4996726;28;20050;-65
2020/12/24 01:34:23;;;;;;;2.97;1.20;;;17.60;72.50;;;;;;4998367;28;20439;-65
2020/12/24 01:36:54;;;;;;;2.05;0.90;;;17.60;72.40;;;;;;5019727;28;20048;-66
2020/12/24 01:39:24;;;;;;;;;;;17.60;72.40;;;;;;5008992;28;20185;-65
2020/12/24 01:41:55;;;;;;;3.45;0.90;;;17.70;72.50;;;;;;4991340;28;20064;-66
2020/12/24 01:44:26;;;;;;;4.57;0.98;;;17.70;72.30;;;;;;5006749;28;20037;-65
2020/12/24 01:46:57;;;;;;;4.50;1.15;;;17.60;72.30;;;;;;5017699;28;20053;-66
2020/12/24 01:49:28;;;;;;;2.78;1.35;;;17.70;72.30;;;;;;5012107;28;20052;-63
2020/12/24 01:51:58;;;;;;;2.88;1.25;;;17.60;72.10;;;;;;5016091;28;20044;-67
2020/12/24 01:54:30;;;;;;;2.97;2.40;;;17.70;72.10;;;;;;5017990;28;20045;-64
2020/12/24 01:57:03;;;;;;;3.38;1.90;;;17.70;72.10;;;;;;5013247;28;20037;-68
2020/12/24 01:59:34;;;;;;;4.18;2.33;;;17.70;72.00;;;;;;5002966;28;20409;-65
2020/12/24 02:02:04;;;;;;;2.97;1.20;;;17.70;71.90;;;;;;5011627;28;20293;-66
2020/12/24 02:04:37;;;;;;;2.78;1.50;;;17.70;71.80;;;;;;5005157;28;20057;-66
2020/12/24 02:07:09;;;;;;;3.67;1.50;;;17.70;71.80;;;;;;5009937;28;20050;-67
2020/12/24 02:09:39;;;;;;;3.53;2.10;;;17.70;71.70;;;;;;5007703;28;20076;-66
2020/12/24 02:12:11;;;;;;;3.75;1.45;;;17.70;71.70;;;;;;5016657;28;20046;-66
2020/12/24 02:14:41;;;;;;;1.27;1.15;;;17.80;71.70;;;;;;5006943;28;20057;-65
2020/12/24 02:17:13;;;;;;;2.55;0.60;;;17.80;71.70;;;;;;5011674;28;20121;-66
2020/12/24 02:19:44;;;;;;;2.97;1.23;;;17.80;71.60;;;;;;5009777;28;22954;-66
2020/12/24 02:22:16;;;;;;;3.25;0.93;;;17.80;71.60;;;;;;5011232;28;20042;-66
2020/12/24 02:24:46;;;;;;;5.18;1.08;;;17.80;71.60;;;;;;5010886;28;20041;-67
2020/12/24 02:27:16;;;;;;;3.67;1.17;;;17.80;71.40;;;;;;5010396;28;20049;-66
2020/12/24 02:29:45;;;;;;;5.00;1.23;;;17.80;71.40;;;;;;5011331;28;20067;-67
2020/12/24 02:32:17;;;;;;;1.67;0.80;;;17.80;71.40;;;;;;5005483;28;20056;-66
2020/12/24 02:34:55;;;;;;;2.92;0.90;;;17.80;71.40;;;;;;5017273;28;20069;-67
2020/12/24 02:37:27;;;;;;;2.63;0.70;;;17.80;71.20;;;;;;5023625;28;20037;-67
2020/12/24 02:39:56;;;;;;;5.20;1.45;;;17.90;71.40;;;;;;5011024;28;20034;-66
2020/12/24 02:42:30;;;;;;;5.72;1.70;;;17.90;71.30;;;;;;5008447;28;20073;-66
2020/12/24 02:45:01;;;;;;;5.45;1.63;;;17.90;71.30;;;;;;5018607;28;20123;-66
2020/12/24 02:47:36;;;;;;;4.10;1.00;;;17.90;71.10;;;;;;5018201;28;20045;-67
2020/12/24 02:50:08;;;;;;;1.20;0.77;;;17.90;71.10;;;;;;5015887;28;20072;-66
2020/12/24 02:52:38;;;;;;;4.45;1.40;;;17.90;71.00;;;;;;5003513;28;20596;-66
2020/12/24 02:55:09;;;;;;;3.47;1.15;;;17.90;70.90;;;;;;5004666;28;20121;-66
2020/12/24 02:57:42;;;;;;;4.03;1.50;;;17.90;70.90;;;;;;5006514;28;20450;-68
2020/12/24 03:00:13;;;;;;;4.57;1.27;;;17.90;70.80;;;;;;5022329;28;20049;-67
2020/12/24 03:02:42;;;;;;;3.88;1.20;;;18.00;70.90;;;;;;5014807;28;20037;-66
2020/12/24 03:05:13;;;;;;;3.67;1.00;;;18.00;70.70;;;;;;5011133;28;20060;-66
2020/12/24 03:07:49;;;;;;;2.38;0.98;;;18.00;70.70;;;;;;5017444;28;20045;-65
2020/12/24 03:10:19;;;;;;;4.15;1.08;;;18.00;70.70;;;;;;5012023;28;20147;-66
2020/12/24 03:12:49;;;;;;;4.43;0.90;;;18.00;70.70;;;;;;5016464;28;20516;-66
2020/12/24 03:15:19;;;;;;;3.67;1.25;;;18.00;70.60;;;;;;5009852;28;20050;-65
2020/12/24 03:17:51;;;;;;;2.80;1.02;;;18.00;70.40;;;;;;5002912;28;20486;-64
2020/12/24 03:20:24;;;;;;;4.47;1.73;;;18.10;70.40;;;;;;5005639;28;20100;-66
2020/12/24 03:22:54;;;;;;;3.35;1.17;;;18.00;70.20;;;;;;4987772;28;20692;-63
2020/12/24 03:25:24;;;;;;;3.65;1.48;;;18.10;70.20;;;;;;5015810;28;20053;-65
2020/12/24 03:27:53;;;;;;;4.78;1.75;;;18.10;70.20;;;;;;5015614;28;20045;-66
2020/12/24 03:30:24;;;;;;;2.22;0.85;;;18.10;70.10;;;;;;5011656;28;20041;-65
2020/12/24 03:32:56;;;;;;;4.82;1.02;;;18.10;70.10;;;;;;5005899;28;20038;-65
2020/12/24 03:35:29;;;;;;;1.98;0.70;;;18.10;70.00;;;;;;5013404;28;20145;-66
2020/12/24 03:37:59;;;;;;;3.25;0.90;;;18.10;70.00;;;;;;5012218;28;20129;-65
2020/12/24 03:40:29;;;;;;;3.97;1.33;;;18.20;69.90;;;;;;5004094;28;20554;-66
2020/12/24 03:42:58;;;;;;;3.10;1.20;;;18.10;69.70;;;;;;4990417;28;20135;-66
2020/12/24 03:45:31;;;;;;;4.13;1.27;;;18.10;69.70;;;;;;5015401;28;20059;-66
2020/12/24 03:48:03;;;;;;;4.70;1.20;;;18.10;69.60;;;;;;5007047;28;20049;-68
2020/12/24 03:50:40;;;;;;;4.18;1.27;;;18.10;69.40;;;;;;4987349;28;20588;-68
2020/12/24 03:53:10;;;;;;;5.18;1.52;;;18.10;69.20;;;;;;5005771;28;20048;-66
2020/12/24 03:55:40;;;;;;;3.25;1.58;;;18.10;69.20;;;;;;5004803;28;20042;-66
2020/12/24 03:58:13;;;;;;;2.15;0.95;;;18.20;69.10;;;;;;5002887;28;20045;-67
2020/12/24 04:00:43;;;;;;;3.85;1.20;;;18.20;69.10;;;;;;5004434;28;20065;-66
2020/12/24 04:03:14;;;;;;;2.20;0.70;;;18.20;69.00;;;;;;5018232;28;20394;-65
2020/12/24 04:05:46;;;;;;;3.05;1.20;;;18.20;69.00;;;;;;5010629;28;20037;-65
2020/12/24 04:08:18;;;;;;;2.65;0.93;;;18.20;68.80;;;;;;5017896;28;20072;-66
2020/12/24 04:10:50;;;;;;;4.65;0.80;;;18.20;68.80;;;;;;5014740;28;20052;-66
2020/12/24 04:13:19;;;;;;;2.22;1.00;;;18.20;68.80;;;;;;5008020;28;20085;-65
2020/12/24 04:15:51;;;;;;;3.92;1.42;;;18.20;68.60;;;;;;5010054;28;20037;-66
2020/12/24 04:18:21;;;;;;;3.10;1.75;;;18.20;68.60;;;;;;5011546;28;20056;-66
2020/12/24 04:21:00;;;;;;;5.55;1.20;;;18.30;68.40;;;;;;5013468;28;20149;-65
2020/12/24 04:23:31;;;;;;;2.38;0.80;;;18.20;68.30;;;;;;5002577;28;20057;-67
2020/12/24 04:26:01;;;;;;;0.93;0.75;;;18.30;68.30;;;;;;5010587;28;20089;-65
2020/12/24 04:28:31;;;;;;;2.90;0.73;;;18.30;68.30;;;;;;5007940;28;20554;-66
2020/12/24 04:31:03;;;;;;;3.10;0.77;;;18.30;68.10;;;;;;5006907;28;20121;-65
2020/12/24 04:33:34;;;;;;;1.33;0.73;;;18.30;68.10;;;;;;5002930;28;20100;-66
2020/12/24 04:36:08;;;;;;;3.50;1.02;;;18.30;67.90;;;;;;5020832;28;20045;-66
2020/12/24 04:38:39;;;;;;;3.90;1.35;;;18.40;68.00;;;;;;5012984;28;20054;-66
2020/12/24 04:41:11;;;;;;;3.40;1.00;;;18.40;67.90;;;;;;5009450;28;20049;-66
2020/12/24 04:47:54;;;;;;;4.45;0.98;;;18.30;67.70;;;;;;5008876;28;20287;-67
2020/12/24 04:50:28;;;;;;;4.80;1.15;;;18.40;67.50;;;;;;5008459;28;20046;-69
2020/12/24 04:52:58;;;;;;;2.30;0.90;;;18.40;67.50;;;;;;5015163;28;20232;-66
2020/12/24 04:55:33;;;;;;;1.98;1.17;;;18.40;67.50;;;;;;5009230;28;20541;-68
2020/12/24 04:58:05;;;;;;;2.95;1.08;;;18.40;67.20;;;;;;5008526;28;20065;-68
2020/12/24 05:00:40;;;;;;;7.28;1.15;;;18.40;67.20;;;;;;5013800;28;20049;-66
2020/12/24 05:03:15;;;;;;;2.70;1.20;;;18.40;67.10;;;;;;5013035;28;20042;-67
2020/12/24 05:05:47;;;;;;;3.42;0.98;;;18.40;67.10;;;;;;5007153;28;20096;-67
2020/12/24 05:08:17;;;;;;;2.97;0.90;;;18.40;67.00;;;;;;5009081;28;20057;-66
2020/12/24 05:11:07;;;;;;;2.78;1.02;;;18.50;67.00;;;;;;5006944;28;20049;-67
2020/12/24 05:13:37;;;;;;;3.92;0.75;;;18.50;66.90;;;;;;5008148;28;20709;-68
2020/12/24 05:16:15;;;;;;;1.50;0.60;;;18.50;66.80;;;;;;5009798;28;20049;-66
2020/12/24 05:18:48;;;;;;;4.15;0.85;;;18.50;66.90;;;;;;5009307;28;20050;-67
2020/12/24 05:21:39;;;;;;;2.33;0.73;;;18.50;66.90;;;;;;5003890;28;20307;-66
2020/12/24 05:24:25;;;;;;;2.60;1.00;;;18.60;66.70;;;;;;5009529;28;20053;-66
2020/12/24 05:27:22;;;;;;;3.90;0.68;;;18.60;66.70;;;;;;5011169;28;20060;-66
2020/12/24 05:29:52;;;;;;;2.30;0.90;;;18.60;66.80;;;;;;4993247;28;20050;-67
2020/12/24 05:32:31;;;;;;;5.25;1.02;;;18.60;66.70;;;;;;5005324;28;20050;-67
2020/12/24 05:35:14;;;;;;;5.00;1.00;;;18.60;66.50;;;;;;5018911;28;20082;-67
2020/12/24 05:37:46;;;;;;;3.92;0.98;;;18.60;66.60;;;;;;4988200;28;20042;-66
2020/12/24 05:40:20;;;;;;;2.08;0.70;;;18.60;66.40;;;;;;5019195;28;20045;-67
2020/12/24 05:43:01;;;;;;;1.92;0.93;;;18.60;66.40;;;;;;4998541;28;20156;-67
2020/12/24 05:45:35;;;;;;;1.83;0.80;;;18.70;66.50;;;;;;4991470;28;20049;-65
2020/12/24 05:48:11;;;;;;;5.03;1.00;;;18.60;66.30;;;;;;5011887;28;20045;-67
2020/12/24 05:50:44;;;;;;;7.30;1.13;;;18.70;66.30;;;;;;4999694;28;20518;-68
2020/12/24 05:53:19;;;;;;;6.38;0.90;;;18.70;66.30;;;;;;5004657;28;20041;-68
2020/12/24 05:55:50;;;;;;;3.40;1.00;;;18.70;66.20;;;;;;5019287;28;20048;-67
2020/12/24 05:58:27;;;;;;;4.95;1.02;;;18.70;66.10;;;;;;5019752;28;20033;-66
2020/12/24 06:00:59;;;;;;;5.60;1.23;;;18.70;66.20;;;;;;5014156;28;20067;-64
2020/12/24 06:03:35;;;;;;;;;;;18.70;66.10;;;;;;5017466;28;20046;-66
2020/12/24 06:06:15;;;;;;;2.35;1.08;;;18.70;66.20;;;;;;5021860;28;20436;-67
2020/12/24 06:08:50;;;;;;;1.75;0.90;;;18.80;66.10;;;;;;5003656;28;20069;-67
2020/12/24 06:11:29;;;;;;;2.70;0.90;;;18.80;66.10;;;;;;4991591;28;20493;-67
2020/12/24 06:14:01;;;;;;;5.18;1.52;;;18.70;66.00;;;;;;5013915;28;20120;-67
2020/12/24 06:16:34;;;;;;;3.88;1.30;;;18.80;66.00;;;;;;5010762;28;20486;-67
2020/12/24 06:19:07;;;;;;;3.25;1.10;;;18.70;66.00;;;;;;5018152;28;20037;-67
2020/12/24 06:21:42;;;;;;;3.42;1.35;;;18.80;66.00;;;;;;5009915;28;20070;-66
2020/12/24 06:24:12;;;;;;;2.60;1.00;;;18.70;65.90;;;;;;4996506;28;20050;-67
2020/12/24 06:26:47;;;;;;;2.03;0.77;;;18.80;65.80;;;;;;5007737;28;20041;-66
2020/12/24 06:29:22;;;;;;;2.88;1.27;;;18.80;65.80;;;;;;5009177;28;20088;-67
2020/12/24 06:31:54;;;;;;;3.70;0.95;;;18.70;65.70;;;;;;5020563;28;20442;-65
2020/12/24 06:34:30;;;;;;;2.47;0.82;;;18.80;65.60;;;;;;5010171;28;20136;-67
2020/12/24 06:37:20;;;;;;;3.42;0.75;;;18.80;65.60;;;;;;5016190;28;20037;-66
2020/12/24 06:39:54;;;;;;;1.65;0.70;;;18.80;65.50;;;;;;5005343;28;20046;-67
2020/12/24 06:42:38;;;;;;;2.28;0.90;;;18.80;65.60;;;;;;5011687;28;20049;-66
2020/12/24 06:45:13;;;;;;;4.38;0.90;;;18.80;65.50;;;;;;5002325;28;20084;-66
2020/12/24 06:47:43;;;;;;;3.72;1.00;;;18.80;65.50;;;;;;5005294;28;20064;-67
2020/12/24 06:50:35;;;;;;;4.32;0.90;;;18.80;65.40;;;;;;5010414;28;20124;-66
2020/12/24 06:53:34;;;;;;;3.05;1.45;;;18.80;65.30;;;;;;5012016;28;20041;-68
2020/12/24 06:56:17;;;;;;;2.45;0.60;;;18.80;65.30;;;;;;5011777;28;20041;-65
2020/12/24 06:59:03;;;;;;;3.35;1.13;;;18.80;65.30;;;;;;5013203;28;20045;-67
2020/12/24 07:01:37;;;;;;;3.60;0.90;;;18.80;65.20;;;;;;5007891;28;20046;-67
2020/12/24 07:04:13;;;;;;;3.35;1.25;;;18.80;65.10;;;;;;5010090;28;20053;-67
2020/12/24 07:06:45;;;;;;;4.18;1.30;;;18.80;65.20;;;;;;5004189;28;20103;-66
2020/12/24 07:09:20;;;;;;;3.05;1.05;;;18.80;65.10;;;;;;5012482;28;20121;-65
2020/12/24 07:11:55;;;;;;;1.42;0.90;;;18.80;65.10;;;;;;5007256;28;20077;-66
2020/12/24 07:14:32;;;;;;;3.35;0.98;;;18.80;65.10;;;;;;5011590;28;20121;-66
2020/12/24 07:17:15;;;;;;;2.88;0.75;;;18.90;65.10;;;;;;5009729;28;20042;-66
2020/12/24 07:19:51;;;;;;;2.97;0.93;;;18.80;64.90;;;;;;5009098;28;20038;-65
2020/12/24 07:22:29;;;;;;;4.53;1.10;;;18.90;64.90;;;;;;4992769;28;20077;-67
2020/12/24 07:25:01;;;;;;;3.47;0.80;;;18.90;65.00;;;;;;5004891;28;20041;-66
2020/12/24 07:27:30;;;;;;;4.88;1.00;;;18.90;64.80;;;;;;5008492;28;20041;-66
2020/12/24 07:30:07;;;;;;;2.47;0.93;;;18.90;64.90;;;;;;5000246;28;20497;-66
2020/12/24 07:32:37;;;;;;;3.95;1.08;;;18.90;64.80;;;;;;5005883;28;20049;-65
2020/12/24 07:35:18;;;;;;;3.95;1.17;;;18.90;64.80;;;;;;5004929;28;20038;-66
2020/12/24 07:37:50;;;;;;;3.60;0.85;;;18.90;64.80;;;;;;5009861;28;20050;-65
2020/12/24 07:40:31;;;;;;;6.93;1.38;;;18.90;64.80;;;;;;5017029;28;20069;-65
2020/12/24 07:43:11;;;;;;;6.40;1.50;;;18.90;64.80;;;;;;5006868;28;20045;-66
2020/12/24 07:45:44;;;;;;;2.55;1.20;;;18.90;64.80;;;;;;5008966;28;20422;-65
2020/12/24 07:48:20;;;;;;;3.78;1.10;;;18.90;64.80;;;;;;5013284;28;20038;-67
2020/12/24 07:50:54;;;;;;;1.48;1.08;;;18.90;64.80;;;;;;5018934;28;20068;-65
2020/12/24 07:53:26;;;;;;;3.22;1.15;;;18.90;64.60;;;;;;5009980;28;20052;-67
2020/12/24 07:56:06;;;;;;;8.85;1.25;;;18.90;64.50;;;;;;5021060;28;20419;-67
2020/12/24 07:58:41;;;;;;;5.05;1.10;;;18.80;64.30;;;;;;5019677;28;20267;-65
2020/12/24 08:01:11;;;;;;;7.10;1.60;;;18.80;64.40;;;;;;5026091;28;20087;-66
2020/12/24 08:03:41;;;;;;;5.28;1.75;;;18.80;64.40;;;;;;5015724;28;20050;-67
2020/12/24 08:06:14;;;;;;;4.43;1.33;;;18.80;64.40;;;;;;5013511;28;20127;-65
2020/12/24 08:08:43;;;;;;;6.32;1.75;;;18.80;64.30;;;;;;5012700;28;20490;-66
2020/12/24 08:11:13;;;;;;;3.28;0.95;;;18.80;64.30;;;;;;5007399;28;20077;-65
2020/12/24 08:13:43;;;;;;;5.30;0.98;;;18.80;64.30;;;;;;5008630;28;20041;-64
2020/12/24 08:16:15;;;;;;;6.22;1.50;;;18.80;64.10;;;;;;5009805;28;20037;-65
2020/12/24 08:18:49;;;;;;;2.58;1.00;;;18.80;64.20;;;;;;5012484;28;20048;-66
2020/12/24 08:21:45;;;;;;;5.45;1.60;;;18.80;64.20;;;;;;4999672;28;20112;-65
2020/12/24 08:24:15;;;;;;;4.35;1.35;;;18.80;64.10;;;;;;5018127;28;20143;-66
2020/12/24 08:26:45;;;;;;;3.90;1.00;;;18.80;64.10;;;;;;5010550;28;20125;-66
2020/12/24 08:29:14;;;;;;;3.47;1.35;;;18.80;64.10;;;;;;5014554;28;20052;-67
2020/12/24 08:31:46;;;;;;;3.63;1.10;;;18.80;64.10;;;;;;5013997;28;20132;-66
2020/12/24 08:34:16;;;;;;;6.15;1.35;;;18.80;64.00;;;;;;5011557;28;20049;-66
2020/12/24 08:36:49;;;;;;;5.97;1.35;;;18.80;64.00;;;;;;5010646;28;20038;-66
2020/12/24 08:39:21;;;;;;;5.82;1.48;;;18.80;64.00;;;;;;5018512;28;20033;-66
2020/12/24 08:41:56;;;;;;;4.30;0.90;;;18.80;63.90;;;;;;5006433;28;20889;-66
2020/12/24 08:44:28;;;;;;;4.50;1.20;;;18.80;63.90;;;;;;5013811;28;20380;-65
2020/12/24 08:47:09;;;;;;;3.25;1.05;;;18.80;63.90;;;;;;5016687;28;20060;-66
2020/12/24 08:49:44;;;;;;;2.70;1.05;;;18.80;63.90;;;;;;5013662;28;20041;-66
2020/12/24 08:52:23;;;;;;;4.55;1.38;;;18.70;63.70;;;;;;5011672;28;20050;-65
2020/12/24 08:55:12;;;;;;;3.50;1.23;;;18.80;63.80;;;;;;5012139;28;20049;-67
2020/12/24 08:57:51;;;;;;;3.95;1.10;;;18.70;63.70;;;;;;5005471;28;20050;-67
2020/12/24 09:00:27;;;;;;;2.45;0.90;;;18.70;63.60;;;;;;5005788;28;20049;-64
2020/12/24 09:02:58;;;;;;;3.83;1.00;;;18.70;63.70;;;;;;5011987;28;20041;-66
2020/12/24 09:05:29;;;;;;;;;;;18.70;63.50;;;;;;5014763;28;20049;-68
2020/12/24 09:07:59;;;;;;;3.13;1.10;;;18.70;63.50;;;;;;5020500;28;19925;-65
2020/12/24 09:10:29;;;;;;;5.72;1.30;;;18.60;63.50;;;;;;5017587;28;20611;-66
2020/12/24 09:13:03;;;;;;;3.17;1.15;;;18.60;63.50;;;;;;5003531;28;20512;-66
2020/12/24 09:15:36;;;;;;;5.03;1.40;;;18.60;63.50;;;;;;5010934;28;20125;-65
2020/12/24 09:18:08;;;;;;;7.63;1.45;;;18.60;63.40;;;;;;5015564;28;20045;-66
2020/12/24 09:20:41;;;;;;;3.47;1.17;;;18.60;63.50;;;;;;5014579;28;20118;-65
2020/12/24 09:23:17;;;;;;;4.40;1.50;;;18.60;63.60;;;;;;5020990;28;20099;-65
2020/12/24 09:25:48;;;;;;;3.38;1.20;;;18.60;63.50;;;;;;5013703;28;20045;-66
2020/12/24 09:28:23;;;;;;;5.15;1.50;;;18.60;63.40;;;;;;5011548;28;20056;-66
2020/12/24 09:30:57;;;;;;;4.25;1.10;;;18.60;63.50;;;;;;5004956;28;20054;-65
2020/12/24 09:33:28;;;;;;;4.05;1.58;;;18.60;63.50;;;;;;5008554;28;20045;-65
2020/12/24 09:36:00;;;;;;;7.80;1.30;;;18.60;63.40;;;;;;5014375;28;20034;-66
2020/12/24 09:38:31;;;;;;;3.75;1.10;;;18.50;63.20;;;;;;5018899;28;20337;-65
2020/12/24 09:41:01;;;;;;;3.65;1.38;;;18.50;63.30;;;;;;5020474;28;20069;-66
2020/12/24 09:43:32;;;;;;;3.80;1.13;;;18.50;63.20;;;;;;5008191;28;20045;-66
2020/12/24 09:46:02;;;;;;;3.03;1.02;;;18.50;63.30;;;;;;5019106;28;20496;-65
2020/12/24 09:48:33;;;;;;;4.30;0.93;;;18.50;63.40;;;;;;5009494;28;20049;-66
2020/12/24 09:51:04;;;;;;;1.45;0.90;;;18.50;63.30;;;;;;5017529;28;20050;-65
2020/12/24 09:53:34;;;;;;;3.33;1.00;;;18.50;63.30;;;;;;5012115;28;20048;-65
2020/12/24 09:56:03;;;;;;;4.30;1.25;;;18.50;63.40;;;;;;5017421;28;20156;-65
2020/12/24 09:58:35;;;;;;;5.68;1.52;;;18.40;63.30;;;;;;5008045;28;20157;-65
2020/12/24 10:01:05;;;;;;;5.05;1.02;;;18.40;63.30;;;;;;5014072;28;20041;-68
2020/12/24 10:03:36;;;;;;;7.53;1.25;;;18.40;63.30;;;;;;5005356;28;20096;-66
2020/12/24 10:06:06;;;;;;;4.85;1.00;;;18.40;63.40;;;;;;5007251;28;20061;-66
2020/12/24 10:08:36;;;;;;;3.60;1.17;;;18.40;63.40;;;;;;5005735;28;20050;-66
2020/12/24 10:11:17;;;;;;;6.47;1.70;;;18.40;63.40;;;;;;5012012;28;20095;-65
2020/12/24 10:13:48;;;;;;;5.32;1.27;;;18.40;63.40;;;;;;5011932;28;20037;-65
2020/12/24 10:16:28;;;;;;;3.65;0.82;;;18.40;63.40;;;;;;5004531;28;20045;-65
2020/12/24 10:18:58;;;;;;;4.65;1.27;;;18.40;63.40;;;;;;5009431;28;20056;-66
2020/12/24 10:21:31;;;;;;;4.65;1.35;;;18.40;63.50;;;;;;5008129;28;20038;-66
2020/12/24 10:24:16;;;;;;;4.30;1.08;;;18.40;63.50;;;;;;5013188;28;20129;-66
2020/12/24 10:26:46;;;;;;;3.27;1.00;;;18.30;64.20;;;;;;5011850;28;20490;-66
2020/12/24 10:29:15;;;;;;;4.65;1.30;;;18.30;63.50;;;;;;5016075;28;20051;-66
2020/12/24 10:31:45;;;;;;;2.47;0.90;;;18.30;63.60;;;;;;5009612;28;20038;-66
2020/12/24 10:34:17;;;;;;;3.33;0.75;;;18.30;63.50;;;;;;5009544;28;20049;-65
2020/12/24 10:36:48;;;;;;;2.72;0.93;;;18.30;63.60;;;;;;5017705;28;20460;-64
2020/12/24 10:39:19;;;;;;;2.42;0.85;;;18.30;63.60;;;;;;5010897;28;20147;-65
2020/12/24 10:41:51;;;;;;;2.83;0.93;;;18.30;63.70;;;;;;5007690;28;20136;-65
2020/12/24 10:44:23;;;;;;;3.03;1.05;;;18.20;64.40;;;;;;4981884;28;20409;-64
2020/12/24 10:46:57;;;;;;;2.92;1.00;;;18.20;63.80;;;;;;4993409;28;20166;-65
2020/12/24 10:49:28;;;;;;;2.42;0.98;;;18.30;63.80;;;;;;5016582;28;20485;-67
2020/12/24 10:52:00;;;;;;;2.17;0.85;;;18.20;63.80;;;;;;5012045;28;20382;-67
2020/12/24 10:54:31;;;;;;;3.00;1.08;;;18.20;63.90;;;;;;4992040;28;20064;-65
2020/12/24 10:57:02;;;;;;;2.22;0.80;;;18.20;64.00;;;;;;5004929;28;20560;-66
2020/12/24 10:59:33;;;;;;;8.65;1.40;;;18.20;64.00;;;;;;5005841;28;20624;-64
2020/12/24 11:02:03;;;;;;;2.00;0.80;;;18.20;64.10;;;;;;5004649;28;20585;-65
2020/12/24 11:04:33;;;;;;;1.88;0.95;;;18.20;64.10;;;;;;5008131;28;20138;-65
2020/12/24 11:07:06;;;;;;;3.03;0.80;;;18.20;64.30;;;;;;5010155;28;20046;-66
2020/12/24 11:09:38;;;;;;;2.42;1.10;;;18.10;64.40;;;;;;5003752;28;20091;-64
2020/12/24 11:12:09;;;;;;;2.78;0.88;;;18.10;65.10;;;;;;5002571;28;20046;-64
2020/12/24 11:14:40;;;;;;;3.78;0.88;;;18.10;64.60;;;;;;5010295;28;20141;-63
2020/12/24 11:17:12;;;;;;;3.13;1.10;;;18.10;64.70;;;;;;5011776;28;20038;-64
2020/12/24 11:19:43;;;;;;;4.40;1.33;;;18.10;64.80;;;;;;5019815;28;20037;-63
2020/12/24 11:22:15;;;;;;;5.45;1.42;;;18.10;64.90;;;;;;5019156;28;20033;-64
2020/12/24 11:24:44;;;;;;;2.33;0.98;;;18.10;65.00;;;;;;5008763;28;20073;-63
2020/12/24 11:27:14;;;;;;;2.78;0.90;;;18.10;65.10;;;;;;5003713;28;20369;-62
2020/12/24 11:29:43;;;;;;;3.05;0.90;;;18.00;65.10;;;;;;5007535;28;20128;-63
2020/12/24 11:32:13;;;;;;;6.28;1.35;;;18.00;65.30;;;;;;5004841;28;20060;-62
2020/12/24 11:34:44;;;;;;;2.70;1.08;;;18.00;65.40;;;;;;5006554;28;20053;-63
2020/12/24 11:37:14;;;;;;;1.80;1.00;;;18.00;65.40;;;;;;4998674;28;20148;-63
2020/12/24 11:39:45;;;;;;;2.30;0.85;;;18.00;65.60;;;;;;5016161;28;20041;-62
2020/12/24 11:42:16;;;;;;;1.50;0.98;;;18.00;65.60;;;;;;5007802;28;20034;-63
2020/12/24 11:44:47;;;;;;;;;;;17.90;65.60;;;;;;5016903;28;20074;-62
2020/12/24 11:47:17;;;;;;;3.35;1.00;;;17.90;65.70;;;;;;5008132;28;20365;-64
2020/12/24 11:49:48;;;;;;;4.82;1.13;;;17.90;65.80;;;;;;5013246;28;20125;-64
2020/12/24 11:52:19;;;;;;;3.40;1.13;;;17.90;65.90;;;;;;5002292;28;20560;-64
2020/12/24 11:54:50;;;;;;;1.92;1.00;;;17.90;66.10;;;;;;5012271;28;20100;-63
2020/12/24 11:57:25;;;;;;;2.42;0.90;;;17.90;66.40;;;;;;5018097;28;20440;-63
2020/12/24 11:59:57;;;;;;;2.15;0.88;;;17.80;66.10;;;;;;5004998;28;20060;-63
2020/12/24 12:02:27;;;;;;;2.33;0.88;;;17.80;66.30;;;;;;5001906;28;20243;-64
2020/12/24 12:04:59;;;;;;;2.60;0.80;;;17.80;66.40;;;;;;5008898;28;20099;-63
2020/12/24 12:07:30;;;;;;;3.92;1.05;;;17.80;66.40;;;;;;5015949;28;20045;-64
2020/12/24 12:09:59;;;;;;;0.85;0.70;;;17.80;66.60;;;;;;4997974;28;20091;-63
2020/12/24 12:12:32;;;;;;;2.00;0.80;;;17.80;66.50;;;;;;5016855;28;20049;-65
2020/12/24 12:15:05;;;;;;;2.83;0.80;;;17.80;66.60;;;;;;5009379;28;20044;-64
2020/12/24 12:17:34;;;;;;;;;;;17.70;66.60;;;;;;5008471;28;20077;-63
2020/12/24 12:20:06;;;;;;;1.73;0.85;;;17.70;66.50;;;;;;5004874;28;19936;-64
2020/12/24 12:22:38;;;;;;;2.13;1.00;;;17.70;66.60;;;;;;5006546;28;20071;-62
2020/12/24 12:25:09;;;;;;;1.33;0.70;;;17.70;66.80;;;;;;5009453;28;20038;-63
2020/12/24 12:27:39;;;;;;;2.80;1.00;;;17.60;66.80;;;;;;5019369;28;20052;-63
2020/12/24 12:30:08;;;;;;;2.53;0.90;;;17.60;66.80;;;;;;5015888;28;20508;-63
2020/12/24 12:32:39;;;;;;;2.25;1.38;;;17.60;66.90;;;;;;5009048;28;20124;-64
2020/12/24 12:35:09;;;;;;;;;;;17.60;67.00;;;;;;5005031;28;20046;-63
2020/12/24 12:37:40;;;;;;;2.88;1.20;;;17.60;67.10;;;;;;5009815;28;20444;-63
2020/12/24 12:40:10;;;;;;;;;;;17.60;67.10;;;;;;5017393;28;20037;-64
2020/12/24 12:42:41;;;;;;;1.38;0.65;;;17.50;67.00;;;;;;5024484;28;19925;-64
2020/12/24 12:45:12;;;;;;;3.47;1.05;;;17.50;67.10;;;;;;5014262;28;20046;-63
2020/12/24 12:47:43;;;;;;;2.25;1.15;;;17.50;67.20;;;;;;5015418;28;20057;-65
2020/12/24 12:50:15;;;;;;;1.73;0.98;;;17.50;67.20;;;;;;5006123;28;20057;-63
2020/12/24 12:52:46;;;;;;;2.13;0.70;;;17.50;67.30;;;;;;4999239;28;20087;-65
2020/12/24 12:55:16;;;;;;;2.95;1.08;;;17.50;67.40;;;;;;5020001;28;20524;-64
2020/12/24 12:57:49;;;;;;;0.80;0.73;;;17.50;67.40;;;;;;5013765;28;20579;-63
2020/12/24 13:00:20;;;;;;;2.63;1.30;;;17.40;67.40;;;;;;4997527;28;20100;-63
2020/12/24 13:02:51;;;;;;;3.80;0.70;;;17.40;67.40;;;;;;5024647;28;20065;-63
2020/12/24 13:05:22;;;;;;;3.78;1.00;;;17.40;67.40;;;;;;5009227;28;20088;-63
2020/12/24 13:07:55;;;;;;;1.95;1.05;;;17.40;67.50;;;;;;4987643;28;20049;-64
2020/12/24 13:10:24;;;;;;;2.03;1.00;;;17.40;67.40;;;;;;5011754;28;20127;-63
2020/12/24 13:12:55;;;;;;;4.00;1.23;;;17.30;67.50;;;;;;5015831;28;20126;-64
2020/12/24 13:15:28;;;;;;;2.78;0.90;;;17.30;67.60;;;;;;5010625;28;20046;-64
2020/12/24 13:17:58;;;;;;;1.70;0.80;;;17.30;67.50;;;;;;5009977;28;20057;-63
2020/12/24 13:20:30;;;;;;;1.80;1.23;;;17.30;67.60;;;;;;5024182;28;20106;-63